Terminal Aerodrome Forecast
Issued by NWS Rapid City, SD

Home | Current Version | Previous Version | Text Only | Print | Product List | Glossary Off
Versions: 1 2 3 4 5 6 7 8 9 10 11 12 13 14 15 16 17 18

000
FTUS43 KUNR 270446 AAA
TAFRAP
TAF AMD
KRAP 270446Z 2705/2724 VRB04KT 6SM BR SCT045
      TEMPO 2705/2709 3/4SM MIFG
     FM271100 18004KT P6SM FEW008 SCT200
     FM271700 15008KT P6SM SCT200=

USA.gov is the U.S. government's official web portal to all federal, state and local government web resources and services.